Time;durP1;ratioP1;P1;durP2;ratioP2;P2;SDS_P1;SDS_P2;PMS_P1;PMS_P2;Temp;Humidity;BMP_temperature;BMP_pressure;BME280_temperature;BME280_humidity;BME280_pressure;Samples;Min_cycle;Max_cycle;Signal;HPM_P1;HPM_P2
2022/01/21 00:01:52;;;;;;;9.05;1.65;;;;;;;-1.66;67.72;100753.69;10415138;28;20095;-69
2022/01/21 00:06:54;;;;;;;5.80;1.40;;;;;;;-1.70;68.67;100746.69;10415135;28;20041;-69
2022/01/21 00:11:55;;;;;;;6.40;1.42;;;;;;;-1.69;67.84;100758.75;10414764;28;20073;-69
2022/01/21 00:16:57;;;;;;;6.10;1.00;;;;;;;-1.58;67.26;100769.38;10397014;28;20052;-69
2022/01/21 00:32:44;;;;;;;4.72;0.82;;;;;;;-1.95;67.59;100782.84;10415052;28;20094;-69
2022/01/21 00:37:46;;;;;;;3.97;1.15;;;;;;;-1.96;67.22;100787.13;10397858;28;20526;-70
2022/01/21 00:43:07;;;;;;;4.80;1.17;;;;;;;-1.97;67.03;100803.44;10414380;28;20048;-70
2022/01/21 00:48:09;;;;;;;5.60;2.05;;;;;;;-1.88;66.36;100816.59;10429719;22;20052;-75
2022/01/21 00:53:11;;;;;;;5.68;1.27;;;;;;;-1.93;66.00;100802.72;10399969;28;20045;-75
2022/01/21 00:58:13;;;;;;;4.32;0.90;;;;;;;-1.97;66.28;100808.59;10416844;28;20041;-76
2022/01/21 01:03:15;;;;;;;6.03;1.00;;;;;;;-2.01;66.33;100822.19;10418826;28;20056;-75
2022/01/21 01:08:18;;;;;;;4.97;1.40;;;;;;;-1.97;65.59;100828.31;10406278;28;20151;-75
2022/01/21 01:23:49;;;;;;;7.35;1.10;;;;;;;-2.09;65.81;100852.00;10406047;28;20055;-75
2022/01/21 01:28:51;;;;;;;6.07;1.70;;;;;;;-2.00;66.29;100851.41;10422425;28;20081;-75
2022/01/21 01:33:53;;;;;;;7.53;1.45;;;;;;;-1.96;66.29;100845.53;10405908;28;20422;-74
2022/01/21 01:49:37;;;;;;;5.88;2.25;;;;;;;-1.89;65.52;100855.22;10404787;28;20037;-76
2022/01/21 01:54:51;;;;;;;6.57;1.20;;;;;;;-2.16;66.33;100865.50;10422834;28;20081;-76
2022/01/21 01:59:53;;;;;;;3.65;0.95;;;;;;;-1.87;64.60;100864.72;10388145;28;20050;-75
2022/01/21 02:04:54;;;;;;;8.65;1.42;;;;;;;-2.13;65.30;100870.75;10422268;28;20446;-75
2022/01/21 02:09:56;;;;;;;4.68;1.05;;;;;;;-2.15;65.37;100870.69;10403787;28;20418;-75
2022/01/21 02:15:00;;;;;;;7.43;1.40;;;;;;;-2.17;65.44;100874.03;10403613;28;20060;-75
2022/01/21 02:25:24;;;;;;;3.30;0.95;;;;;;;-2.00;64.49;100862.59;10421141;28;20065;-76
2022/01/21 02:30:26;;;;;;;3.28;1.27;;;;;;;-2.14;65.80;100880.16;10403661;28;20041;-75
2022/01/21 02:35:31;;;;;;;6.80;1.50;;;;;;;-2.13;65.96;100878.47;10402507;28;20137;-75
2022/01/21 02:40:33;;;;;;;6.43;1.00;;;;;;;-2.02;65.59;100882.28;10402872;28;20045;-76
2022/01/21 02:45:37;;;;;;;7.18;1.08;;;;;;;-1.85;64.58;100888.00;10421217;28;20506;-75
2022/01/21 02:50:39;;;;;;;6.55;1.60;;;;;;;-2.02;65.35;100900.31;10402298;28;20072;-75
2022/01/21 02:55:40;;;;;;;5.22;1.55;;;;;;;-1.97;64.57;100888.47;10420110;28;20263;-74
2022/01/21 03:00:42;;;;;;;8.13;1.35;;;;;;;-2.23;66.11;100894.44;10402755;28;20088;-74
2022/01/21 03:05:44;;;;;;;4.03;1.13;;;;;;;-2.10;65.15;100886.31;10386586;28;20079;-75
2022/01/21 03:10:46;;;;;;;7.25;0.90;;;;;;;-2.09;64.82;100894.06;10403260;28;20041;-75
2022/01/21 03:15:51;;;;;;;5.80;1.65;;;;;;;-2.05;64.33;100888.19;10385515;28;20045;-75
2022/01/21 03:20:53;;;;;;;4.95;1.17;;;;;;;-2.21;64.84;100898.84;10401419;28;20137;-75
2022/01/21 03:25:55;;;;;;;5.40;1.30;;;;;;;-2.37;65.16;100896.56;10400191;28;20053;-75
2022/01/21 03:31:14;;;;;;;3.80;1.45;;;;;;;-2.30;64.17;100895.97;10402731;28;20076;-75
2022/01/21 03:36:17;;;;;;;4.22;1.00;;;;;;;-2.24;63.93;100903.88;10418654;28;20041;-75
2022/01/21 03:41:19;;;;;;;4.65;0.95;;;;;;;-2.30;63.73;100912.28;10401461;28;20048;-75
2022/01/21 03:46:21;;;;;;;6.88;1.10;;;;;;;-2.23;63.89;100922.78;10400179;28;20380;-75
2022/01/21 03:51:23;;;;;;;4.90;1.15;;;;;;;-2.38;63.86;100918.00;10399852;28;20053;-75
2022/01/21 03:56:25;;;;;;;5.53;1.20;;;;;;;-2.31;62.92;100922.50;10400620;28;20045;-75
2022/01/21 04:01:29;;;;;;;6.72;1.10;;;;;;;-2.33;63.23;100919.03;10400946;28;20469;-75
2022/01/21 04:06:31;;;;;;;7.15;1.20;;;;;;;-2.41;63.57;100925.59;10383608;28;20069;-74
2022/01/21 04:11:33;;;;;;;6.75;0.88;;;;;;;-2.25;62.88;100934.75;10399664;28;20617;-74
2022/01/21 04:16:34;;;;;;;5.47;0.80;;;;;;;-2.40;62.38;100940.22;10399060;28;20068;-74
2022/01/21 04:21:36;;;;;;;10.18;1.20;;;;;;;-2.43;62.62;100935.84;10399200;28;20053;-74
2022/01/21 04:26:40;;;;;;;8.50;0.93;;;;;;;-2.48;63.02;100937.38;10399982;28;20048;-74
2022/01/21 04:31:47;;;;;;;4.63;1.20;;;;;;;-2.83;64.52;100959.28;10399959;28;20049;-75
2022/01/21 04:36:51;;;;;;;3.28;0.77;;;;;;;-2.95;65.25;100966.53;10401459;28;20054;-74
2022/01/21 04:47:17;;;;;;;6.28;0.98;;;;;;;-3.02;65.61;100969.69;10411042;28;20107;-74
2022/01/21 04:47:39;;;;;;;10.35;1.35;;;;;;;-2.90;66.06;100967.59;10427518;28;20068;-76
2022/01/21 04:52:45;;;;;;;11.20;1.38;;;;;;;-2.74;64.65;100957.06;10411371;28;20072;-75
2022/01/21 04:58:09;;;;;;;3.05;0.88;;;;;;;-2.99;65.49;100954.38;10409029;28;20132;-76
2022/01/21 05:03:17;;;;;;;5.18;1.35;;;;;;;-2.85;65.27;100959.22;10407440;28;20473;-76
2022/01/21 05:08:27;;;;;;;5.65;1.42;;;;;;;-2.83;64.75;100949.00;10407448;28;20049;-76
2022/01/21 05:13:36;;;;;;;17.17;1.33;;;;;;;-2.75;64.29;100944.97;10407737;28;20046;-75
2022/01/21 05:18:39;;;;;;;5.43;1.10;;;;;;;-2.73;64.26;100956.22;10407690;28;20049;-74
2022/01/21 05:23:58;;;;;;;5.95;1.27;;;;;;;-2.80;64.47;100955.09;10408455;28;20076;-74
2022/01/21 05:29:00;;;;;;;7.80;1.42;;;;;;;-2.82;64.70;100968.75;10409304;28;20414;-74
2022/01/21 05:34:23;;;;;;;7.85;1.30;;;;;;;-2.88;64.79;100971.06;10408746;28;20049;-74
2022/01/21 05:39:46;;;;;;;8.70;1.98;;;;;;;-2.81;64.52;100968.81;10409394;28;20046;-75
2022/01/21 05:50:59;;;;;;;8.77;1.05;;;;;;;-2.73;63.89;100953.66;10437733;28;20042;-74
2022/01/21 05:56:38;;;;;;;7.10;1.52;;;;;;;-2.84;63.68;100954.94;10415763;28;20049;-74
2022/01/21 06:01:46;;;;;;;4.28;1.35;;;;;;;-2.87;62.77;100960.88;10430400;28;20037;-74
2022/01/21 06:06:48;;;;;;;5.63;1.00;;;;;;;-2.79;62.21;100948.25;10406908;28;20045;-74
2022/01/21 06:11:51;;;;;;;10.40;1.60;;;;;;;-2.87;62.64;100955.72;10407620;28;20467;-75
2022/01/21 06:16:53;;;;;;;4.93;0.82;;;;;;;-2.74;61.58;100939.03;10406985;28;20160;-75
2022/01/21 06:21:55;;;;;;;4.32;1.17;;;;;;;-2.80;61.88;100936.22;10423723;28;20053;-75
2022/01/21 06:27:01;;;;;;;5.20;1.48;;;;;;;-2.74;61.37;100946.75;10424665;28;20107;-75
2022/01/21 06:32:03;;;;;;;4.65;1.00;;;;;;;-2.68;60.97;100954.69;10424202;28;20093;-74
2022/01/21 06:37:05;;;;;;;9.68;1.20;;;;;;;-2.84;62.17;100962.66;10423488;28;20037;-74
2022/01/21 06:42:06;;;;;;;2.95;1.10;;;;;;;-2.72;61.57;100951.94;10423905;28;20045;-74
2022/01/21 06:47:08;;;;;;;5.53;0.70;;;;;;;-2.71;61.75;100951.13;10451359;23;20045;-68
2022/01/21 06:52:09;;;;;;;7.55;1.70;;;;;;;-2.76;61.99;100953.53;10441088;28;20064;-69
2022/01/21 06:57:11;;;;;;;4.05;1.08;;;;;;;-2.75;61.82;100963.00;10458360;28;20037;-69
2022/01/21 07:02:13;;;;;;;3.10;0.75;;;;;;;-2.74;61.80;100944.19;10457519;28;20053;-69
2022/01/21 07:07:16;;;;;;;5.93;1.08;;;;;;;-2.66;61.41;100944.44;10457874;28;20079;-68
2022/01/21 07:12:17;;;;;;;4.75;1.15;;;;;;;-2.67;61.87;100945.28;10439918;28;20103;-68
2022/01/21 07:17:19;;;;;;;9.38;1.40;;;;;;;-2.69;62.64;100941.78;10458159;28;20060;-69
2022/01/21 07:22:25;;;;;;;6.17;1.27;;;;;;;-2.67;62.67;100947.84;10441573;28;20049;-69
2022/01/21 07:27:27;;;;;;;6.25;1.15;;;;;;;-2.67;62.98;100950.41;10457472;28;20090;-69
2022/01/21 07:32:28;;;;;;;3.60;1.15;;;;;;;-2.87;64.10;100949.69;10457210;28;20121;-69
2022/01/21 07:37:30;;;;;;;8.35;1.60;;;;;;;-2.82;64.43;100940.44;10456904;28;20045;-70
2022/01/21 07:42:32;;;;;;;6.95;1.25;;;;;;;-2.76;64.87;100940.66;10458186;28;20175;-70
2022/01/21 07:47:33;;;;;;;4.80;1.20;;;;;;;-2.69;65.86;100955.53;10456571;28;20041;-68
2022/01/21 07:52:35;;;;;;;7.47;1.33;;;;;;;-2.59;66.02;100965.31;10456866;28;20048;-68
2022/01/21 07:57:37;;;;;;;6.57;1.58;;;;;;;-2.69;67.60;100972.66;10456503;28;20095;-68
2022/01/21 08:02:38;;;;;;;10.60;2.15;;;;;;;-2.49;67.58;100957.91;10456162;28;20049;-68
2022/01/21 08:07:41;;;;;;;9.63;1.77;;;;;;;-2.36;68.22;100963.56;10455699;28;20391;-68
2022/01/21 08:12:42;;;;;;;7.05;2.08;;;;;;;-2.39;69.41;100960.91;10455371;28;20053;-69
2022/01/21 08:17:44;;;;;;;8.10;1.63;;;;;;;-2.35;69.97;100956.69;10456559;28;20049;-68
2022/01/21 08:22:46;;;;;;;6.88;1.90;;;;;;;-2.21;70.13;100964.91;10455682;28;20048;-68
2022/01/21 08:27:47;;;;;;;7.72;1.60;;;;;;;-2.05;70.89;100962.91;10421511;28;20044;-69
2022/01/21 08:32:49;;;;;;;9.02;1.70;;;;;;;-1.95;71.22;100964.09;10455597;28;20049;-69
2022/01/21 08:37:52;;;;;;;9.88;2.13;;;;;;;-1.87;71.29;100966.94;10456462;28;20099;-69
2022/01/21 08:42:54;;;;;;;6.70;1.95;;;;;;;-1.70;71.34;100976.09;10455829;28;20053;-69
2022/01/21 08:47:56;;;;;;;10.93;2.20;;;;;;;-1.81;71.94;100960.28;10455049;28;20051;-69
2022/01/21 08:53:09;;;;;;;7.82;2.67;;;;;;;-1.52;71.91;100970.66;10455286;28;20045;-69
2022/01/21 08:58:10;;;;;;;14.73;2.92;;;;;;;-1.47;72.13;100969.09;10455679;28;20453;-69
2022/01/21 09:03:12;;;;;;;9.52;2.47;;;;;;;-1.25;72.21;100975.81;10455345;28;20102;-69
2022/01/21 09:08:15;;;;;;;11.70;2.25;;;;;;;-1.09;71.71;100975.47;10454845;28;20056;-70
2022/01/21 09:13:16;;;;;;;11.20;2.25;;;;;;;-0.87;71.87;100983.84;10454905;28;20383;-69
2022/01/21 09:18:20;;;;;;;10.00;2.55;;;;;;;-0.74;71.05;100970.47;10438256;28;20045;-68
2022/01/21 09:23:21;;;;;;;11.57;2.30;;;;;;;-0.71;71.47;100980.00;10455237;28;20098;-69
2022/01/21 09:28:23;;;;;;;8.98;2.45;;;;;;;-0.61;71.61;100969.13;10459905;28;20071;-68
2022/01/21 09:33:25;;;;;;;8.43;2.72;;;;;;;-0.52;71.57;100974.53;10461673;28;20049;-68
2022/01/21 09:38:27;;;;;;;10.68;2.67;;;;;;;-0.49;71.05;100959.09;10460507;28;20430;-68
2022/01/21 09:43:29;;;;;;;9.85;2.72;;;;;;;-0.52;71.38;100941.84;10461118;28;20053;-68
2022/01/21 09:48:36;;;;;;;15.73;3.08;;;;;;;-0.18;70.67;100950.47;10442968;28;20052;-68
2022/01/21 09:53:38;;;;;;;;;;;;;;;0.05;70.14;100939.88;10461367;28;20053;-68
2022/01/21 09:58:45;;;;;;;12.02;2.15;;;;;;;0.11;69.94;100948.66;10427170;28;19920;-68
2022/01/21 10:03:49;;;;;;;9.77;2.58;;;;;;;-0.15;71.87;100952.28;10459567;28;20114;-68
2022/01/21 10:08:54;;;;;;;14.52;2.60;;;;;;;-0.04;71.24;100943.13;10456016;28;20069;-68
2022/01/21 10:13:56;;;;;;;21.30;4.10;;;;;;;-0.31;73.21;100935.47;10459823;28;20053;-68
2022/01/21 10:19:06;;;;;;;8.05;2.90;;;;;;;-0.57;78.36;100946.00;10460084;28;20045;-69
2022/01/21 10:24:13;;;;;;;6.78;2.72;;;;;;;-0.62;80.41;100938.94;10461296;28;20041;-70
2022/01/21 10:29:15;;;;;;;16.90;3.55;;;;;;;-0.70;80.88;100943.91;10460823;28;20041;-68
2022/01/21 10:34:24;;;;;;;11.70;3.03;;;;;;;-0.65;81.22;100951.78;10458784;28;20106;-68
2022/01/21 10:39:30;;;;;;;7.85;3.03;;;;;;;-0.74;81.49;100949.81;10459066;28;20421;-68
2022/01/21 10:44:32;;;;;;;9.63;3.20;;;;;;;-0.70;81.87;100946.50;10460078;28;20171;-68
2022/01/21 10:49:36;;;;;;;16.10;3.95;;;;;;;-0.34;80.73;100956.09;10458229;28;20053;-68
2022/01/21 10:54:42;;;;;;;12.85;3.85;;;;;;;-0.23;80.81;100957.22;10485101;28;20501;-68
2022/01/21 11:00:10;;;;;;;19.90;5.10;;;;;;;-0.16;82.29;100950.53;10499233;28;20102;-68
2022/01/21 11:05:17;;;;;;;13.27;4.18;;;;;;;0.01;80.64;100954.44;10500286;28;20097;-67
2022/01/21 11:10:37;;;;;;;10.65;3.60;;;;;;;0.11;79.69;100964.16;10499763;28;20143;-68
2022/01/21 11:15:58;;;;;;;12.20;4.43;;;;;;;0.00;80.45;100952.69;10499880;28;20106;-69
2022/01/21 11:21:20;;;;;;;11.38;3.88;;;;;;;0.18;79.23;100947.97;10482228;28;20040;-69
2022/01/21 11:26:21;;;;;;;11.05;5.25;;;;;;;0.09;80.40;100952.03;10480310;28;20135;-69
2022/01/21 11:31:28;;;;;;;12.85;4.03;;;;;;;0.40;79.01;100948.47;10480715;28;20036;-69
2022/01/21 11:36:43;;;;;;;17.60;4.63;;;;;;;0.31;78.64;100954.34;10487592;28;20406;-69
2022/01/21 11:41:45;;;;;;;13.25;4.57;;;;;;;0.18;79.32;100947.13;10458032;28;20436;-69
2022/01/21 11:47:13;;;;;;;19.75;4.60;;;;;;;0.21;78.38;100949.75;10455233;28;20082;-70
2022/01/21 11:52:18;;;;;;;13.68;3.65;;;;;;;0.33;77.22;100946.59;10456102;28;20037;-69
2022/01/21 11:57:31;;;;;;;13.98;4.53;;;;;;;0.28;77.18;100932.69;10456428;28;20131;-68
2022/01/21 12:02:36;;;;;;;13.18;4.05;;;;;;;0.49;76.41;100939.25;10456868;28;20048;-69
2022/01/21 12:07:48;;;;;;;12.93;4.00;;;;;;;0.54;76.27;100934.19;10456321;28;20045;-69
2022/01/21 12:12:55;;;;;;;17.67;3.85;;;;;;;0.38;74.01;100940.69;10437967;28;20578;-69
2022/01/21 12:23:24;;;;;;;14.00;5.55;;;;;;;0.47;73.25;100940.03;10456269;28;20049;-68
2022/01/21 12:28:25;;;;;;;16.25;3.97;;;;;;;0.63;71.47;100944.75;10455934;28;20044;-69
2022/01/21 12:33:57;;;;;;;20.83;3.70;;;;;;;0.58;70.83;100951.53;10455743;28;20045;-70
2022/01/21 12:44:07;;;;;;;6.53;2.33;;;;;;;0.49;71.54;100957.34;10455686;28;20068;-69
2022/01/21 12:49:45;;;;;;;6.63;1.80;;;;;;;0.93;69.09;100941.06;10416909;23;20053;-75
2022/01/21 13:00:27;;;;;;;8.35;2.03;;;;;;;0.97;65.72;100932.53;10385826;28;20061;-76
2022/01/21 13:05:42;;;;;;;6.80;2.00;;;;;;;0.68;65.93;100945.72;10387968;28;20503;-75
2022/01/21 13:10:45;;;;;;;5.57;2.13;;;;;;;0.44;67.21;100948.63;10385825;28;20411;-75
2022/01/21 13:15:54;;;;;;;5.75;1.38;;;;;;;0.56;65.69;100954.91;10389524;28;20045;-75
2022/01/21 13:21:04;;;;;;;9.35;2.22;;;;;;;0.45;65.25;100946.91;10395125;28;20047;-75
2022/01/21 13:26:27;;;;;;;11.15;2.25;;;;;;;0.62;65.21;100943.00;10409846;28;20467;-75
2022/01/21 13:31:32;;;;;;;3.15;1.25;;;;;;;0.48;63.82;100949.53;10424711;28;20041;-75
2022/01/21 13:36:36;;;;;;;5.75;1.85;;;;;;;0.60;64.81;100944.66;10426596;28;20045;-75
2022/01/21 13:42:10;;;;;;;5.95;1.05;;;;;;;0.49;65.05;100949.59;10430082;28;20334;-74
2022/01/21 13:47:31;;;;;;;6.88;1.70;;;;;;;0.48;64.36;100957.31;10428536;28;20054;-75
2022/01/21 13:52:38;;;;;;;3.15;1.20;;;;;;;0.59;63.20;100957.56;10429043;28;20045;-75
2022/01/21 13:57:45;;;;;;;4.25;1.15;;;;;;;0.63;62.59;100969.75;10425838;28;20045;-75
2022/01/21 14:03:00;;;;;;;4.28;1.00;;;;;;;0.83;62.39;100954.66;10424894;28;20479;-75
2022/01/21 14:08:09;;;;;;;7.00;1.40;;;;;;;0.52;63.62;100953.94;10427430;28;20457;-75
2022/01/21 14:13:12;;;;;;;4.22;1.10;;;;;;;0.53;62.33;100957.41;10428252;28;20057;-74
2022/01/21 14:18:14;;;;;;;10.52;2.20;;;;;;;0.43;62.97;100958.91;10427047;28;20073;-75
2022/01/21 14:23:24;;;;;;;3.85;1.05;;;;;;;0.64;62.99;100964.59;10424802;28;20051;-74
2022/01/21 14:28:43;;;;;;;7.57;2.17;;;;;;;0.58;62.95;100948.06;10425145;28;20060;-74
2022/01/21 14:33:44;;;;;;;7.82;2.00;;;;;;;0.57;62.30;100951.47;10427063;28;20128;-75
2022/01/21 14:38:52;;;;;;;6.20;1.40;;;;;;;0.48;61.67;100960.75;10425538;28;20037;-75
2022/01/21 14:43:55;;;;;;;5.32;1.20;;;;;;;0.34;63.24;100959.56;10426451;28;20103;-76
2022/01/21 14:49:03;;;;;;;5.72;1.35;;;;;;;0.34;64.40;100969.03;10426111;28;20041;-74
2022/01/21 14:54:18;;;;;;;6.47;1.60;;;;;;;0.48;64.15;100968.53;10424793;28;20343;-73
2022/01/21 14:59:20;;;;;;;8.48;1.52;;;;;;;0.35;64.50;100963.00;10425267;28;20549;-73
2022/01/21 15:04:21;;;;;;;9.30;3.60;;;;;;;0.39;63.64;100960.53;10423751;28;20037;-73
2022/01/21 15:09:29;;;;;;;6.45;2.03;;;;;;;0.12;64.23;100965.91;10424500;28;20398;-73
2022/01/21 15:14:43;;;;;;;4.88;1.67;;;;;;;0.04;64.62;100961.38;10423656;28;20487;-75
2022/01/21 15:19:47;;;;;;;3.97;1.42;;;;;;;0.09;64.55;100965.84;10423852;28;20046;-74
2022/01/21 15:24:50;;;;;;;4.22;1.20;;;;;;;0.20;63.19;100956.63;10421533;28;20053;-74
2022/01/21 15:29:54;;;;;;;3.85;1.05;;;;;;;-0.06;63.74;100952.53;10424365;28;20099;-73
2022/01/21 15:34:56;;;;;;;3.60;1.70;;;;;;;0.15;62.29;100949.63;10423098;28;20042;-74
2022/01/21 15:39:58;;;;;;;4.80;1.20;;;;;;;0.14;61.65;100963.38;10423012;28;20423;-74
2022/01/21 15:45:00;;;;;;;6.57;1.30;;;;;;;-0.01;61.79;100966.44;10422781;28;20049;-74
2022/01/21 15:50:04;;;;;;;6.90;1.10;;;;;;;0.00;61.67;100965.63;10422188;28;20041;-74
2022/01/21 15:55:07;;;;;;;2.83;1.00;;;;;;;0.06;61.60;100967.47;10421638;28;20060;-73
2022/01/21 16:00:09;;;;;;;6.13;1.35;;;;;;;0.09;61.34;100964.94;10423735;28;20446;-75
2022/01/21 16:05:11;;;;;;;5.40;1.40;;;;;;;-0.03;61.67;100962.94;10423303;28;20059;-72
2022/01/21 16:10:13;;;;;;;4.68;1.35;;;;;;;0.02;61.62;100960.47;10421513;28;20076;-73
2022/01/21 16:15:16;;;;;;;3.08;1.38;;;;;;;0.04;61.79;100951.03;10421970;28;20046;-72
2022/01/21 16:20:18;;;;;;;5.75;2.38;;;;;;;0.04;62.29;100953.63;10422789;28;20045;-74
2022/01/21 16:25:19;;;;;;;3.95;1.13;;;;;;;0.10;62.67;100956.38;10424604;28;20041;-73
2022/01/21 16:30:21;;;;;;;5.25;1.80;;;;;;;0.08;63.05;100961.50;10406299;28;20068;-72
2022/01/21 16:35:23;;;;;;;4.95;1.55;;;;;;;0.03;63.66;100968.25;10418973;28;20099;-73
2022/01/21 16:40:25;;;;;;;6.20;2.05;;;;;;;-0.01;63.83;100967.31;10347987;28;20054;-73
2022/01/21 16:45:26;;;;;;;11.75;3.05;;;;;;;0.02;64.32;100970.81;10347772;28;20042;-73
2022/01/21 16:50:28;;;;;;;16.98;5.57;;;;;;;-0.03;64.98;100978.44;10349211;28;20038;-73
2022/01/21 16:55:30;;;;;;;25.70;14.38;;;;;;;0.07;64.42;100982.16;10379412;28;20054;-74
2022/01/21 17:00:31;;;;;;;48.60;19.60;;;;;;;-0.05;65.67;100982.69;10387570;28;20038;-73
2022/01/21 17:05:35;;;;;;;19.98;11.45;;;;;;;-0.01;65.93;100989.69;10386344;28;20045;-74
2022/01/21 17:10:38;;;;;;;13.52;6.05;;;;;;;0.07;66.13;100987.31;10405054;28;20046;-73
2022/01/21 17:15:40;;;;;;;7.93;2.38;;;;;;;0.11;66.62;100984.84;10427606;28;20458;-74
2022/01/21 17:20:42;;;;;;;5.13;1.90;;;;;;;0.08;67.38;100978.72;10427151;28;20045;-73
2022/01/21 17:25:44;;;;;;;5.68;3.28;;;;;;;0.08;67.85;100982.19;10423492;28;20060;-74
2022/01/21 17:30:46;;;;;;;5.05;2.17;;;;;;;0.06;68.24;100977.81;10386758;28;20041;-75
2022/01/21 17:35:52;;;;;;;8.52;2.80;;;;;;;0.15;68.53;100971.16;10387233;28;20117;-74
2022/01/21 17:40:55;;;;;;;7.38;3.30;;;;;;;0.09;69.21;100976.19;10384798;28;20046;-75
2022/01/21 17:45:57;;;;;;;4.70;2.38;;;;;;;0.03;69.99;100970.84;10383275;28;20064;-76
2022/01/21 17:51:00;;;;;;;5.82;2.40;;;;;;;0.20;69.20;100966.97;10384218;28;20084;-73
2022/01/21 17:56:02;;;;;;;5.68;2.55;;;;;;;0.16;69.80;100970.31;10383607;28;20128;-73
2022/01/21 18:01:04;;;;;;;7.05;2.28;;;;;;;0.17;70.16;100971.19;10395774;28;20076;-74
2022/01/21 18:06:06;;;;;;;7.07;2.42;;;;;;;0.17;70.25;100971.19;10424560;28;20057;-75
2022/01/21 18:11:12;;;;;;;5.15;2.45;;;;;;;0.12;70.71;100977.97;10423465;28;20557;-74
2022/01/21 18:16:14;;;;;;;11.23;2.50;;;;;;;0.24;70.79;100971.41;10425706;28;20519;-74
2022/01/21 18:21:15;;;;;;;9.43;3.25;;;;;;;0.34;70.61;100962.16;10423064;28;20033;-74
2022/01/21 18:26:18;;;;;;;5.25;2.95;;;;;;;0.21;71.38;100958.38;10422697;28;20053;-74
2022/01/21 18:31:20;;;;;;;10.52;4.15;;;;;;;0.36;71.39;100944.97;10423850;28;20041;-74
2022/01/21 18:36:22;;;;;;;8.90;3.05;;;;;;;0.38;71.84;100943.28;10422253;28;20120;-73
2022/01/21 18:41:27;;;;;;;8.30;3.30;;;;;;;0.43;72.05;100928.75;10422961;28;20121;-73
2022/01/21 18:46:31;;;;;;;18.13;4.75;;;;;;;0.34;72.63;100930.25;10432498;23;20049;-71
2022/01/21 18:51:34;;;;;;;8.80;4.95;;;;;;;0.42;72.71;100934.75;10378442;28;20038;-70
2022/01/21 18:56:35;;;;;;;11.38;5.35;;;;;;;0.44;73.27;100927.03;10377804;28;20116;-70
2022/01/21 19:01:40;;;;;;;11.70;3.78;;;;;;;0.47;73.46;100925.38;10376969;28;20104;-71
2022/01/21 19:06:44;;;;;;;9.55;4.32;;;;;;;0.59;73.74;100916.19;10381238;28;20565;-70
2022/01/21 19:11:45;;;;;;;9.10;3.80;;;;;;;0.61;74.05;100919.66;10394156;28;20064;-71
2022/01/21 19:16:47;;;;;;;10.00;3.47;;;;;;;0.79;73.82;100919.19;10375530;28;20061;-70
2022/01/21 19:21:52;;;;;;;5.72;3.60;;;;;;;0.65;74.52;100922.34;10375948;28;20037;-70
2022/01/21 19:32:07;;;;;;;7.78;3.25;;;;;;;0.82;74.38;100920.16;10377820;28;20085;-70
2022/01/21 19:37:11;;;;;;;7.90;3.85;;;;;;;0.99;74.15;100923.09;10377584;28;20128;-71
2022/01/21 19:42:12;;;;;;;4.80;3.42;;;;;;;0.91;74.38;100919.47;10404154;28;20045;-70
2022/01/21 19:47:17;;;;;;;12.75;4.22;;;;;;;0.95;74.25;100914.41;10413976;28;20076;-71
2022/01/21 19:52:18;;;;;;;12.80;3.22;;;;;;;0.99;74.43;100913.63;10376079;28;20046;-70
2022/01/21 19:57:25;;;;;;;6.55;3.25;;;;;;;1.11;73.53;100892.28;10377842;28;20050;-71
2022/01/21 20:05:51;;;;;;;7.17;2.90;;;;;;;1.13;73.26;100897.50;10377844;28;20072;-70
2022/01/21 20:12:54;;;;;;;8.90;3.15;;;;;;;1.05;73.31;100886.09;10377581;28;20101;-70
2022/01/21 20:17:56;;;;;;;4.57;2.22;;;;;;;1.13;72.48;100869.88;10335158;28;20046;-70
2022/01/21 20:22:57;;;;;;;5.82;2.55;;;;;;;1.08;72.96;100862.88;10349050;28;20038;-70
2022/01/21 20:27:59;;;;;;;8.93;2.17;;;;;;;1.10;73.66;100861.16;10374686;28;20100;-71
2022/01/21 20:33:02;;;;;;;5.30;2.20;;;;;;;1.15;73.77;100856.94;10375466;28;20496;-72
2022/01/21 20:38:09;;;;;;;6.10;2.15;;;;;;;1.11;74.96;100852.59;10376429;28;20127;-71
2022/01/21 20:43:11;;;;;;;5.20;2.33;;;;;;;1.14;75.69;100831.91;10375959;28;20045;-71
2022/01/21 20:48:12;;;;;;;7.05;2.45;;;;;;;1.14;76.64;100834.50;10375358;28;20042;-71
2022/01/21 20:53:16;;;;;;;5.32;2.28;;;;;;;1.09;77.87;100828.34;10374480;28;20042;-70
2022/01/21 20:58:18;;;;;;;7.13;2.25;;;;;;;1.15;78.37;100826.78;10374554;28;20050;-71
2022/01/21 21:03:19;;;;;;;4.40;2.25;;;;;;;1.12;79.31;100823.25;10372844;28;20108;-70
2022/01/21 21:08:22;;;;;;;5.80;2.17;;;;;;;1.19;79.33;100810.41;10372466;28;20062;-69
2022/01/21 21:13:24;;;;;;;8.10;2.30;;;;;;;1.16;81.28;100810.38;10374495;28;20038;-72
2022/01/21 22:27:53;;;;;;;5.03;4.53;;;;;;;1.40;90.88;100653.66;10293016;28;20086;-69
2022/01/21 22:59:51;;;;;;;;;;;;;;;1.15;94.19;100637.75;10363489;28;20411;-68
2022/01/21 23:04:48;;;;;;;3.30;3.03;;;;;;;1.16;94.24;100616.19;10376280;28;20049;-67
2022/01/21 23:09:49;;;;;;;2.83;2.60;;;;;;;1.21;93.69;100601.56;10376276;28;20045;-68
2022/01/21 23:14:52;;;;;;;2.95;2.28;;;;;;;1.20;93.82;100601.56;10377693;28;20045;-67
2022/01/21 23:19:53;;;;;;;2.38;2.17;;;;;;;1.30;93.97;100598.25;10375793;28;20057;-68
2022/01/21 23:24:59;;;;;;;2.33;2.13;;;;;;;1.43;93.68;100597.59;10376236;28;20111;-67
2022/01/21 23:30:02;;;;;;;2.80;2.55;;;;;;;1.43;93.32;100582.03;10373800;28;20077;-68
2022/01/21 23:35:07;;;;;;;2.78;2.58;;;;;;;1.42;93.83;100588.09;10375540;28;20058;-67
2022/01/21 23:45:18;;;;;;;2.53;2.20;;;;;;;1.51;93.28;100577.84;10373887;28;20100;-67
2022/01/21 23:50:24;;;;;;;3.50;3.30;;;;;;;1.33;94.34;100561.16;10374717;28;20088;-67
2022/01/21 23:55:25;;;;;;;2.70;2.50;;;;;;;1.36;94.80;100564.66;10376059;28;20057;-67
